createdAt,value
2016-05-30T00:00:26.903Z,1001.27
2016-05-30T00:01:26.906Z,1001.25
2016-05-30T00:02:26.908Z,1001.24
2016-05-30T00:03:26.911Z,1001.24
2016-05-30T00:04:26.914Z,1001.22
2016-05-30T00:05:26.917Z,1001.27
2016-05-30T00:06:26.919Z,1001.28
2016-05-30T00:07:26.922Z,1001.2
2016-05-30T00:08:26.924Z,1001.24
2016-05-30T00:09:26.912Z,1001.26
2016-05-30T00:10:26.915Z,1001.22
2016-05-30T00:11:26.918Z,1001.21
2016-05-30T00:12:26.920Z,1001.23
2016-05-30T00:13:26.923Z,1001.23
2016-05-30T00:14:26.926Z,1001.24
2016-05-30T00:15:26.928Z,1001.26
2016-05-30T00:16:26.978Z,1001.26
2016-05-30T00:17:26.981Z,1001.26
2016-05-30T00:18:26.983Z,1001.3
2016-05-30T00:19:26.923Z,1001.3
2016-05-30T00:20:26.926Z,1001.25
2016-05-30T00:21:27.069Z,1001.21
2016-05-30T00:22:26.931Z,1001.17
2016-05-30T00:23:26.934Z,1001.17
2016-05-30T00:24:26.936Z,1001.13
2016-05-30T00:25:26.923Z,1001.12
2016-05-30T00:26:26.925Z,1001.12
2016-05-30T00:27:26.928Z,1001.11
2016-05-30T00:28:26.932Z,1001.13
2016-05-30T00:29:26.934Z,1001.1
2016-05-30T00:30:26.937Z,1001.12
2016-05-30T00:31:26.939Z,1001.1
2016-05-30T00:32:26.927Z,1001.1
2016-05-30T00:33:26.929Z,1001.1
2016-05-30T00:34:27.041Z,1001.06
2016-05-30T00:35:26.935Z,1001.03
2016-05-30T00:36:26.938Z,1001.05
2016-05-30T00:37:26.941Z,1001.02
2016-05-30T00:38:26.943Z,1001
2016-05-30T00:39:26.945Z,1001.02
2016-05-30T00:40:26.933Z,1001.02
2016-05-30T00:41:26.936Z,1001.02
2016-05-30T00:42:26.954Z,1001.01
2016-05-30T00:43:26.941Z,1000.97
2016-05-30T00:44:26.943Z,1000.91
2016-05-30T00:45:26.946Z,1000.93
2016-05-30T00:46:26.949Z,1000.86
2016-05-30T00:47:26.952Z,1000.91
2016-05-30T00:48:26.939Z,1000.91
2016-05-30T00:49:26.942Z,1000.88
2016-05-30T00:52:26.950Z,1000.84
2016-05-30T00:53:26.952Z,1000.84
2016-05-30T00:54:26.939Z,1000.84
2016-05-30T00:55:26.942Z,1000.84
2016-05-30T00:56:26.945Z,1000.83
2016-05-30T00:57:26.947Z,1000.8
2016-05-30T00:58:26.950Z,1000.82
2016-05-30T00:59:26.953Z,1000.81
2016-05-30T01:00:27.877Z,1000.84
2016-05-30T01:01:26.958Z,1000.8
2016-05-30T01:02:26.944Z,1000.76
2016-05-30T01:03:26.947Z,1000.75
2016-05-30T01:04:27.247Z,1000.72
2016-05-30T01:05:26.953Z,1000.66
2016-05-30T01:06:26.955Z,1000.71
2016-05-30T01:07:27.052Z,1000.7
2016-05-30T01:08:26.961Z,1000.67
2016-05-30T01:09:26.948Z,1000.63
2016-05-30T01:10:26.951Z,1000.67
2016-05-30T01:11:26.953Z,1000.63
2016-05-30T01:12:26.956Z,1000.64
2016-05-30T01:13:26.959Z,1000.61
2016-05-30T01:14:26.962Z,1000.66
2016-05-30T01:15:26.948Z,1000.67
2016-05-30T01:16:26.952Z,1000.66
2016-05-30T01:17:26.954Z,1000.71
2016-05-30T01:18:26.957Z,1000.65
2016-05-30T01:19:26.959Z,1000.69
2016-05-30T01:20:26.946Z,1000.64
2016-05-30T01:21:26.965Z,1000.62
2016-05-30T01:22:26.984Z,1000.65
2016-05-30T01:23:26.954Z,1000.57
2016-05-30T01:24:26.957Z,1000.59
2016-05-30T01:25:26.960Z,1000.56
2016-05-30T01:26:26.963Z,1000.54
2016-05-30T01:27:26.965Z,1000.58
2016-05-30T01:28:26.953Z,1000.56
2016-05-30T01:29:26.955Z,1000.52
2016-05-30T01:30:26.958Z,1000.56
2016-05-30T01:31:26.961Z,1000.49
2016-05-30T01:32:26.963Z,1000.52
2016-05-30T01:33:26.966Z,1000.56
2016-05-30T01:34:26.968Z,1000.49
2016-05-30T01:35:26.956Z,1000.58
2016-05-30T01:36:26.958Z,1000.52
2016-05-30T01:37:27.508Z,1000.52
2016-05-30T01:38:26.963Z,1000.49
2016-05-30T01:39:26.966Z,1000.58
2016-05-30T01:40:26.969Z,1000.56
2016-05-30T01:41:26.957Z,1000.57
2016-05-30T01:42:26.959Z,1000.55
2016-05-30T01:43:26.962Z,1000.55
2016-05-30T01:44:26.965Z,1000.53
2016-05-30T01:45:26.967Z,1000.49
2016-05-30T01:46:26.970Z,1000.49
2016-05-30T01:47:26.972Z,1000.5
2016-05-30T01:48:26.959Z,1000.49
2016-05-30T01:49:26.962Z,1000.49
2016-05-30T01:50:26.965Z,1000.46
2016-05-30T01:51:27.326Z,1000.42
2016-05-30T01:52:26.970Z,1000.45
2016-05-30T01:53:26.973Z,1000.41
2016-05-30T01:54:28.912Z,1000.41
2016-05-30T01:55:28.572Z,1000.46
2016-05-30T01:56:26.964Z,1000.48
2016-05-30T01:57:26.967Z,1000.42
2016-05-30T01:58:26.970Z,1000.38
2016-05-30T01:59:26.973Z,1000.4
2016-05-30T02:00:26.960Z,1000.42
2016-05-30T02:01:26.964Z,1000.33
2016-05-30T02:02:26.966Z,1000.41
2016-05-30T02:03:28.577Z,1000.41
2016-05-30T02:04:26.971Z,1000.4
2016-05-30T02:05:28.067Z,1000.42
2016-05-30T02:06:28.180Z,1000.41
2016-05-30T02:07:26.964Z,1000.4
2016-05-30T02:08:26.983Z,1000.45
2016-05-30T02:09:26.968Z,1000.43
2016-05-30T02:10:27.316Z,1000.46
2016-05-30T02:11:26.974Z,1000.45
2016-05-30T02:12:26.977Z,1000.45
2016-05-30T02:13:26.996Z,1000.48
2016-05-30T02:14:27.138Z,1000.43
2016-05-30T02:15:26.969Z,1000.38
2016-05-30T02:16:27.176Z,1000.37
2016-05-30T02:17:26.975Z,1000.36
2016-05-30T02:18:26.977Z,1000.38
2016-05-30T02:19:28.465Z,1000.38
2016-05-30T02:20:26.968Z,1000.34
2016-05-30T02:21:26.985Z,1000.39
2016-05-30T02:22:26.973Z,1000.38
2016-05-30T02:23:26.975Z,1000.36
2016-05-30T02:24:26.978Z,1000.32
2016-05-30T02:25:26.965Z,1000.32
2016-05-30T02:26:26.968Z,1000.28
2016-05-30T02:27:26.970Z,1000.29
2016-05-30T02:28:26.973Z,1000.31
2016-05-30T02:29:26.976Z,1000.28
2016-05-30T02:30:26.978Z,1000.22
2016-05-30T02:31:26.966Z,1000.24
2016-05-30T02:32:26.968Z,1000.22
2016-05-30T02:33:26.972Z,1000.23
2016-05-30T02:34:26.974Z,1000.19
2016-05-30T02:35:26.977Z,1000.17
2016-05-30T02:36:27.213Z,1000.15
2016-05-30T02:37:26.966Z,1000.14
2016-05-30T02:38:26.969Z,1000.14
2016-05-30T02:39:26.984Z,1000.1
2016-05-30T02:40:27.014Z,1000.15
2016-05-30T02:41:27.043Z,1000.14
2016-05-30T02:42:27.073Z,1000.09
2016-05-30T02:43:27.087Z,1000.09
2016-05-30T02:44:27.108Z,1000.06
2016-05-30T02:45:27.121Z,1000.03
2016-05-30T02:46:27.133Z,1000.05
2016-05-30T02:47:27.145Z,1000.01
2016-05-30T02:48:27.142Z,1000.05
2016-05-30T02:49:27.152Z,1000.03
2016-05-30T02:50:27.157Z,1000.06
2016-05-30T02:51:27.601Z,1000.06
2016-05-30T02:52:27.170Z,1000.07
2016-05-30T02:53:27.176Z,1000.04
2016-05-30T02:54:27.181Z,1000.06
2016-05-30T02:55:27.169Z,1000.03
2016-05-30T02:56:27.173Z,1000.09
2016-05-30T02:57:27.177Z,1000.08
2016-05-30T02:58:27.181Z,1000.06
2016-05-30T02:59:27.184Z,1000.03
2016-05-30T03:00:27.172Z,1000.03
2016-05-30T03:01:27.176Z,1000.01
2016-05-30T03:02:27.178Z,1000.05
2016-05-30T03:03:27.182Z,1000.12
2016-05-30T03:04:27.185Z,1000.05
2016-05-30T03:05:27.188Z,1000.08
2016-05-30T03:06:27.176Z,1000.07
2016-05-30T03:07:27.365Z,1000.05
2016-05-30T03:08:27.180Z,1000.11
2016-05-30T03:09:27.184Z,1000.06
2016-05-30T03:10:27.187Z,1000.08
2016-05-30T03:11:27.173Z,1000.07
2016-05-30T03:12:28.082Z,1000.07
2016-05-30T03:13:27.178Z,1000.07
2016-05-30T03:14:27.181Z,1000.11
2016-05-30T03:15:27.590Z,1000.14
2016-05-30T03:16:27.187Z,1000.17
2016-05-30T03:17:27.189Z,1000.16
2016-05-30T03:18:27.177Z,1000.16
2016-05-30T03:19:27.179Z,1000.12
2016-05-30T03:20:27.182Z,1000.12
2016-05-30T03:21:27.200Z,1000.17
2016-05-30T03:22:27.296Z,1000.14
2016-05-30T03:23:27.533Z,1000.15
2016-05-30T03:24:27.177Z,1000.18
2016-05-30T03:25:27.180Z,1000.19
2016-05-30T03:26:27.182Z,1000.23
2016-05-30T03:27:27.481Z,1000.3
2016-05-30T03:28:27.188Z,1000.31
2016-05-30T03:29:27.190Z,1000.34
2016-05-30T03:30:27.271Z,1000.28
2016-05-30T03:31:27.195Z,1000.26
2016-05-30T03:32:27.198Z,1000.29
2016-05-30T03:33:27.201Z,1000.31
2016-05-30T03:34:27.656Z,1000.33
2016-05-30T03:35:27.190Z,1000.27
2016-05-30T03:36:27.334Z,1000.29
2016-05-30T03:37:27.884Z,1000.4
2016-05-30T03:38:27.184Z,1000.3
2016-05-30T03:39:27.874Z,1000.29
2016-05-30T03:40:28.141Z,1000.32
2016-05-30T03:41:27.192Z,1000.33
2016-05-30T03:42:27.195Z,1000.35
2016-05-30T03:43:27.181Z,1000.32
2016-05-30T03:44:27.528Z,1000.36
2016-05-30T03:45:27.203Z,1000.41
2016-05-30T03:46:27.189Z,1000.45
2016-05-30T03:47:27.192Z,1000.42
2016-05-30T03:48:27.194Z,1000.42
2016-05-30T03:49:27.197Z,1000.56
2016-05-30T03:50:27.200Z,1000.53
2016-05-30T03:51:27.187Z,1000.48
2016-05-30T03:52:27.674Z,1000.48
2016-05-30T03:53:27.192Z,1000.55
2016-05-30T03:54:27.194Z,1000.57
2016-05-30T03:55:27.197Z,1000.47
2016-05-30T03:56:27.200Z,1000.49
2016-05-30T03:57:27.188Z,1000.49
2016-05-30T03:58:27.221Z,1000.5
2016-05-30T03:59:27.208Z,1000.47
2016-05-30T04:00:27.196Z,1000.52
2016-05-30T04:01:27.198Z,1000.51
2016-05-30T04:02:27.201Z,1000.47
2016-05-30T04:03:27.203Z,1000.5
2016-05-30T04:04:27.207Z,1000.46
2016-05-30T04:05:27.209Z,1000.49
2016-05-30T04:06:27.212Z,1000.51
2016-05-30T04:07:27.214Z,1000.47
2016-05-30T04:08:27.217Z,1000.6
2016-05-30T04:09:27.204Z,1000.58
2016-05-30T04:10:27.207Z,1000.53
2016-05-30T04:11:27.210Z,1000.56
2016-05-30T04:12:27.212Z,1000.57
2016-05-30T04:13:27.214Z,1000.59
2016-05-30T04:14:27.218Z,1000.67
2016-05-30T04:15:27.220Z,1000.66
2016-05-30T04:16:27.223Z,1000.64
2016-05-30T04:17:27.226Z,1000.68
2016-05-30T04:18:27.228Z,1000.65
2016-05-30T04:19:27.231Z,1000.54
2016-05-30T04:20:27.234Z,1000.52
2016-05-30T04:21:28.158Z,1000.5
2016-05-30T04:22:27.239Z,1000.49
2016-05-30T04:23:27.227Z,1000.51
2016-05-30T04:24:27.229Z,1000.54
2016-05-30T04:25:27.232Z,1000.55
2016-05-30T04:26:27.234Z,1000.5
2016-05-30T04:27:27.237Z,1000.55
2016-05-30T04:28:27.240Z,1000.59
2016-05-30T04:29:27.242Z,1000.6
2016-05-30T04:30:27.245Z,1000.69
2016-05-30T04:31:28.748Z,1000.55
2016-05-30T04:32:27.251Z,1000.62
2016-05-30T04:33:27.253Z,1000.69
2016-05-30T04:35:27.258Z,1000.61
2016-05-30T04:36:28.011Z,1000.69
2016-05-30T04:37:27.265Z,1000.69
2016-05-30T04:38:27.267Z,1000.71
2016-05-30T04:39:27.269Z,1000.77
2016-05-30T04:40:27.256Z,1000.74
2016-05-30T04:41:28.009Z,1000.72
2016-05-30T04:42:27.261Z,1000.7
2016-05-30T04:43:28.124Z,1000.73
2016-05-30T04:44:27.267Z,1000.7
2016-05-30T04:45:27.269Z,1000.73
2016-05-30T04:46:27.273Z,1000.76
2016-05-30T04:47:27.275Z,1000.8
2016-05-30T04:48:27.278Z,1000.74
2016-05-30T04:49:28.078Z,1000.76
2016-05-30T04:50:27.283Z,1000.72
2016-05-30T04:51:27.286Z,1000.61
2016-05-30T04:52:27.336Z,1000.71
2016-05-30T04:53:27.291Z,1000.78
2016-05-30T04:54:27.294Z,1000.85
2016-05-30T04:55:27.297Z,1000.72
2016-05-30T04:57:27.318Z,1000.87
2016-05-30T04:58:27.321Z,1000.83
2016-05-30T04:59:27.323Z,1000.82
2016-05-30T05:00:27.326Z,1000.6
2016-05-30T05:01:27.329Z,1000.63
2016-05-30T05:02:27.331Z,1000.61
2016-05-30T05:03:27.334Z,1000.55
2016-05-30T05:04:27.337Z,1000.71
2016-05-30T05:05:27.339Z,1000.63
2016-05-30T05:06:27.357Z,1000.79
2016-05-30T05:07:27.345Z,1000.93
2016-05-30T05:08:27.347Z,1001.25
2016-05-30T05:09:27.350Z,1001.41
2016-05-30T05:10:27.353Z,1001.45
2016-05-30T05:11:27.370Z,1001.5
2016-05-30T05:12:27.373Z,1001.49
2016-05-30T05:13:27.376Z,1001.48
2016-05-30T05:14:27.378Z,1001.37
2016-05-30T05:15:27.381Z,1001.37
2016-05-30T05:16:27.384Z,1001.32
2016-05-30T05:17:27.387Z,1001.34
2016-05-30T05:18:27.405Z,1001.39
2016-05-30T05:19:27.408Z,1001.44
2016-05-30T05:20:27.411Z,1001.39
2016-05-30T05:21:28.054Z,1001.19
2016-05-30T05:22:27.432Z,1000.93
2016-05-30T05:23:27.434Z,1000.89
2016-05-30T05:24:27.437Z,1000.65
2016-05-30T05:25:27.455Z,1000.69
2016-05-30T05:26:27.458Z,1000.68
2016-05-30T05:27:27.461Z,1000.96
2016-05-30T05:28:27.480Z,1000.98
2016-05-30T05:29:27.482Z,1000.63
2016-05-30T05:30:27.484Z,1000.55
2016-05-30T05:31:27.503Z,1000.59
2016-05-30T05:32:27.505Z,1000.59
2016-05-30T05:33:27.524Z,1000.61
2016-05-30T05:34:27.542Z,1000.74
2016-05-30T05:35:27.529Z,1000.98
2016-05-30T05:36:27.532Z,1001.17
2016-05-30T05:37:27.659Z,1001.39
2016-05-30T05:38:27.553Z,1001.44
2016-05-30T05:39:27.556Z,1001.72
2016-05-30T05:40:27.558Z,1001.7
2016-05-30T05:41:27.577Z,1001.36
2016-05-30T05:42:27.579Z,1001.96
2016-05-30T05:43:27.598Z,1002
2016-05-30T05:44:27.600Z,1002.11
2016-05-30T05:45:27.603Z,1002.1
2016-05-30T05:46:27.620Z,1002.16
2016-05-30T05:47:27.624Z,1002.18
2016-05-30T05:48:27.626Z,1002.19
2016-05-30T05:49:27.645Z,1002.35
2016-05-30T05:50:30.101Z,1002.28
2016-05-30T05:51:28.556Z,1002.24
2016-05-30T05:52:28.215Z,1001.56
2016-05-30T05:53:27.686Z,1001.56
2016-05-30T05:54:27.690Z,1002.24
2016-05-30T05:55:27.708Z,1001.49
2016-05-30T05:56:27.711Z,1002.31
2016-05-30T05:57:27.729Z,1002.35
2016-05-30T05:58:27.732Z,1002.34
2016-05-30T05:59:27.750Z,1002.3
2016-05-30T06:00:29.909Z,1002.36
2016-05-30T06:01:27.771Z,1002.4
2016-05-30T06:02:27.774Z,1002.47
2016-05-30T06:03:27.792Z,1002.45
2016-05-30T06:04:27.810Z,1002.41
2016-05-30T06:05:27.813Z,1002.45
2016-05-30T06:06:28.269Z,1002.58
2016-05-30T06:07:27.834Z,1002.43
2016-05-30T06:08:27.852Z,1002.33
2016-05-30T06:09:28.277Z,1002.3
2016-05-30T06:10:27.889Z,1002.36
2016-05-30T06:11:27.892Z,1002.35
2016-05-30T06:12:27.895Z,1002.29
2016-05-30T06:13:27.912Z,1002.17
2016-05-30T06:14:27.915Z,1002.15
2016-05-30T06:15:27.934Z,1002.26
2016-05-30T06:16:27.951Z,1002.22
2016-05-30T06:17:27.954Z,1002.05
2016-05-30T06:18:27.973Z,1001.95
2016-05-30T06:19:28.975Z,1001.97
2016-05-30T06:20:28.103Z,1002.01
2016-05-30T06:21:28.012Z,1002.06
2016-05-30T06:22:28.217Z,1002.11
2016-05-30T06:23:28.049Z,1001.97
2016-05-30T06:24:28.052Z,1002.08
2016-05-30T06:25:28.069Z,1002.12
2016-05-30T06:26:28.072Z,1002.06
2016-05-30T06:27:28.091Z,1002.15
2016-05-30T06:28:28.108Z,1002.12
2016-05-30T06:29:28.127Z,1002.05
2016-05-30T06:30:28.130Z,1002.04
2016-05-30T06:31:28.148Z,1002.04
2016-05-30T06:32:28.166Z,1001.97
2016-05-30T06:33:28.185Z,1002.02
2016-05-30T06:34:28.204Z,1002.11
2016-05-30T06:35:28.207Z,1002.03
2016-05-30T06:36:28.599Z,1002.07
2016-05-30T06:37:28.243Z,1001.99
2016-05-30T06:38:28.260Z,1002.08
2016-05-30T06:39:28.279Z,1002.12
2016-05-30T06:40:28.298Z,1002.03
2016-05-30T06:41:28.300Z,1002.03
2016-05-30T06:42:28.319Z,1002.03
2016-05-30T06:43:28.337Z,1001.99
2016-05-30T06:44:28.356Z,1002.07
2016-05-30T06:45:28.373Z,1002.17
2016-05-30T06:46:28.376Z,1002.17
2016-05-30T06:47:28.395Z,1002.1
2016-05-30T06:48:28.412Z,1002
2016-05-30T06:49:28.432Z,1002.13
2016-05-30T06:50:28.450Z,1002.19
2016-05-30T06:51:28.467Z,1002.04
2016-05-30T06:52:28.534Z,1002.08
2016-05-30T06:53:28.505Z,1002.07
2016-05-30T06:54:28.522Z,1002.17
2016-05-30T06:55:28.542Z,1002.25
2016-05-30T06:56:28.544Z,1002.11
2016-05-30T06:57:28.562Z,1002.21
2016-05-30T06:58:28.581Z,1002.26
2016-05-30T06:59:28.599Z,1002.21
2016-05-30T07:00:28.617Z,1002.27
2016-05-30T07:01:28.635Z,1002.15
2016-05-30T07:02:28.654Z,1002.32
2016-05-30T07:03:28.672Z,1002.33
2016-05-30T07:04:28.691Z,1002.25
2016-05-30T07:05:28.709Z,1002.32
2016-05-30T07:06:28.727Z,1002.37
2016-05-30T07:07:28.746Z,1002.43
2016-05-30T07:08:28.763Z,1002.53
2016-05-30T07:09:28.782Z,1002.49
2016-05-30T07:10:28.800Z,1002.41
2016-05-30T07:11:28.819Z,1002.39
2016-05-30T07:12:28.837Z,1002.37
2016-05-30T07:13:28.839Z,1002.34
2016-05-30T07:14:28.874Z,1002.4
2016-05-30T07:15:28.892Z,1002.41
2016-05-30T07:16:28.910Z,1002.42
2016-05-30T07:17:28.929Z,1002.54
2016-05-30T07:18:28.994Z,1002.51
2016-05-30T07:19:28.965Z,1002.63
2016-05-30T07:20:28.984Z,1002.64
2016-05-30T07:21:30.001Z,1002.63
2016-05-30T07:22:29.020Z,1002.56
2016-05-30T07:23:29.039Z,1002.62
2016-05-30T07:24:29.056Z,1002.65
2016-05-30T07:25:29.450Z,1002.74
2016-05-30T07:26:29.719Z,1002.73
2016-05-30T07:27:29.112Z,1002.75
2016-05-30T07:28:29.130Z,1002.67
2016-05-30T07:29:29.148Z,1002.79
2016-05-30T07:30:29.167Z,1002.63
2016-05-30T07:31:29.185Z,1002.74
2016-05-30T07:32:29.485Z,1002.65
2016-05-30T07:33:29.221Z,1002.63
2016-05-30T07:34:29.240Z,1002.64
2016-05-30T07:35:29.789Z,1002.71
2016-05-30T07:36:29.277Z,1002.7
2016-05-30T07:37:29.294Z,1002.65
2016-05-30T07:38:29.329Z,1002.65
2016-05-30T07:39:29.346Z,1002.72
2016-05-30T07:40:29.366Z,1002.69
2016-05-30T07:41:29.696Z,1002.65
2016-05-30T07:42:29.527Z,1002.56
2016-05-30T07:43:29.420Z,1002.65
2016-05-30T07:44:29.439Z,1002.76
2016-05-30T07:45:29.457Z,1002.7
2016-05-30T07:46:29.475Z,1002.71
2016-05-30T07:47:29.493Z,1002.74
2016-05-30T07:48:29.512Z,1002.71
2016-05-30T07:49:29.593Z,1002.74
2016-05-30T07:50:29.564Z,1002.75
2016-05-30T07:51:30.004Z,1002.72
2016-05-30T07:52:29.834Z,1002.65
2016-05-30T07:53:29.619Z,1002.62
2016-05-30T07:54:29.637Z,1001.58
2016-05-30T07:55:29.656Z,1002.16
2016-05-30T07:56:29.690Z,1002.57
2016-05-30T07:57:29.708Z,1002.45
2016-05-30T07:58:29.726Z,1002.45
2016-05-30T07:59:29.744Z,1002.45
2016-05-30T08:00:29.763Z,1002.46
2016-05-30T08:01:29.781Z,1002.45
2016-05-30T08:02:29.800Z,1002.4
2016-05-30T08:03:29.818Z,1002.32
2016-05-30T08:04:29.836Z,1002.26
2016-05-30T08:05:29.870Z,1002.25
2016-05-30T08:06:30.607Z,1002.22
2016-05-30T08:07:29.907Z,1002.26
2016-05-30T08:08:29.925Z,1002.21
2016-05-30T08:09:29.944Z,1002.27
2016-05-30T08:10:29.962Z,1002.32
2016-05-30T08:11:29.996Z,1002.27
2016-05-30T08:12:30.013Z,1002.25
2016-05-30T08:13:30.032Z,1002.17
2016-05-30T08:14:30.051Z,1002.16
2016-05-30T08:15:30.069Z,1002.11
2016-05-30T08:16:30.088Z,1002.13
2016-05-30T08:17:30.106Z,1002.15
2016-05-30T08:18:30.140Z,1002.22
2016-05-30T08:19:30.157Z,1002.22
2016-05-30T08:20:30.176Z,1002.07
2016-05-30T08:21:30.195Z,1002.1
2016-05-30T08:22:30.807Z,1002.1
2016-05-30T08:23:30.248Z,1002.03
2016-05-30T08:24:30.264Z,1002.05
2016-05-30T08:25:30.283Z,1002
2016-05-30T08:26:30.301Z,1001.97
2016-05-30T08:27:30.320Z,1001.95
2016-05-30T08:28:30.354Z,1001.97
2016-05-30T08:29:30.372Z,1002.01
2016-05-30T08:30:30.391Z,1001.99
2016-05-30T08:31:31.408Z,1002.03
2016-05-30T08:32:30.536Z,1002.07
2016-05-30T08:33:30.445Z,1001.94
2016-05-30T08:34:30.464Z,1002.03
2016-05-30T08:35:30.497Z,1002.04
2016-05-30T08:36:31.469Z,1002.09
2016-05-30T08:37:30.535Z,1002.21
2016-05-30T08:38:30.552Z,1002.26
2016-05-30T08:39:31.618Z,1002.17
2016-05-30T08:40:30.589Z,1002.08
2016-05-30T08:41:31.514Z,1002.06
2016-05-30T08:42:30.627Z,1002.12
2016-05-30T08:43:30.643Z,1002.18
2016-05-30T08:45:30.696Z,1002.3
2016-05-30T08:46:30.715Z,1002.21
2016-05-30T08:47:30.732Z,1002.11
2016-05-30T08:48:30.751Z,1001.99
2016-05-30T08:49:30.754Z,1001.7
2016-05-30T08:50:30.788Z,1001.72
2016-05-30T08:51:30.807Z,1001.67
2016-05-30T08:52:30.825Z,1001.76
2016-05-30T08:53:30.842Z,1001.78
2016-05-30T08:54:30.861Z,1001.8
2016-05-30T08:55:32.004Z,1001.82
2016-05-30T08:56:30.898Z,1001.89
2016-05-30T08:57:30.901Z,1001.86
2016-05-30T08:58:30.920Z,1001.84
2016-05-30T08:59:30.937Z,1001.79
2016-05-30T09:00:30.955Z,1001.78
2016-05-30T09:01:30.974Z,1001.86
2016-05-30T09:02:30.992Z,1001.94
2016-05-30T09:03:31.011Z,1001.93
2016-05-30T09:04:31.014Z,1001.92
2016-05-30T09:05:31.031Z,1001.87
2016-05-30T09:06:31.050Z,1002.04
2016-05-30T09:07:31.068Z,1001.85
2016-05-30T09:08:31.087Z,1001.76
2016-05-30T09:09:31.089Z,1001.72
2016-05-30T09:10:31.107Z,1001.71
2016-05-30T09:11:31.110Z,1001.77
2016-05-30T09:12:31.129Z,1001.73
2016-05-30T09:13:31.132Z,1001.77
2016-05-30T09:14:31.149Z,1001.79
2016-05-30T09:15:31.168Z,1001.78
2016-05-30T09:16:31.170Z,1001.85
2016-05-30T09:17:31.188Z,1001.89
2016-05-30T09:18:31.207Z,1001.94
2016-05-30T09:19:31.210Z,1002.14
2016-05-30T09:20:31.229Z,1002.03
2016-05-30T09:21:31.231Z,1002.07
2016-05-30T09:22:31.640Z,1002.06
2016-05-30T09:23:31.251Z,1002.09
2016-05-30T09:24:31.270Z,1002.07
2016-05-30T09:25:31.289Z,1002.17
2016-05-30T09:26:31.292Z,1002.13
2016-05-30T09:27:31.309Z,1002.17
2016-05-30T09:28:31.311Z,1002.06
2016-05-30T09:29:31.331Z,1002.04
2016-05-30T09:30:31.333Z,1002.05
2016-05-30T09:31:31.351Z,1002.14
2016-05-30T09:32:31.354Z,1002.18
2016-05-30T09:33:31.373Z,1002.21
2016-05-30T09:34:31.375Z,1002.2
2016-05-30T09:35:31.394Z,1002.22
2016-05-30T09:36:31.396Z,1002.27
2016-05-30T09:37:31.618Z,1002.28
2016-05-30T09:38:31.417Z,1002.29
2016-05-30T09:39:31.435Z,1002.38
2016-05-30T09:40:31.438Z,1002.42
2016-05-30T09:41:31.457Z,1002.41
2016-05-30T09:42:31.459Z,1002.36
2016-05-30T09:43:31.478Z,1002.17
2016-05-30T09:44:31.480Z,1002.16
2016-05-30T09:45:31.482Z,1002.01
2016-05-30T09:46:31.502Z,1001.91
2016-05-30T09:47:31.504Z,1001.86
2016-05-30T09:48:31.521Z,1001.88
2016-05-30T09:49:31.729Z,1001.85
2016-05-30T09:50:31.543Z,1001.79
2016-05-30T09:51:31.562Z,1001.7
2016-05-30T09:52:31.564Z,1001.67
2016-05-30T09:53:31.582Z,1001.69
2016-05-30T09:54:31.584Z,1001.71
2016-05-30T09:55:31.587Z,1001.74
2016-05-30T09:56:31.606Z,1001.78
2016-05-30T09:57:32.921Z,1001.77
2016-05-30T09:58:31.627Z,1001.72
2016-05-30T09:59:31.630Z,1001.67
2016-05-30T10:00:31.648Z,1001.7
2016-05-30T10:01:32.651Z,1001.75
2016-05-30T10:02:32.216Z,1001.7
2016-05-30T10:03:31.672Z,1001.67
2016-05-30T10:04:31.690Z,1001.68
2016-05-30T10:05:31.693Z,1001.84
2016-05-30T10:06:32.570Z,1001.76
2016-05-30T10:07:31.714Z,1001.77
2016-05-30T10:08:31.733Z,1001.78
2016-05-30T10:09:31.736Z,1001.83
2016-05-30T10:10:31.738Z,1001.85
2016-05-30T10:11:31.756Z,1001.91
2016-05-30T10:12:31.759Z,1001.9
2016-05-30T10:13:31.777Z,1001.95
2016-05-30T10:14:31.780Z,1001.99
2016-05-30T10:15:31.799Z,1001.97
2016-05-30T10:16:31.801Z,1001.84
2016-05-30T10:17:31.804Z,1001.85
2016-05-30T10:18:31.821Z,1001.8
2016-05-30T10:19:31.824Z,1001.69
2016-05-30T10:20:31.843Z,1001.59
2016-05-30T10:21:31.860Z,1001.52
2016-05-30T10:22:31.863Z,1001.51
2016-05-30T10:23:31.882Z,1001.52
2016-05-30T10:24:31.885Z,1001.52
2016-05-30T10:25:31.903Z,1001.58
2016-05-30T10:26:31.921Z,1001.56
2016-05-30T10:27:31.924Z,1001.54
2016-05-30T10:28:31.926Z,1001.51
2016-05-30T10:29:31.929Z,1001.46
2016-05-30T10:30:31.948Z,1001.47
2016-05-30T10:31:31.966Z,1001.44
2016-05-30T10:32:31.969Z,1001.43
2016-05-30T10:33:31.972Z,1001.44
2016-05-30T10:34:31.989Z,1001.42
2016-05-30T10:35:31.992Z,1001.48
2016-05-30T10:36:32.011Z,1001.51
2016-05-30T10:37:32.014Z,1001.5
2016-05-30T10:38:32.031Z,1001.52
2016-05-30T10:39:32.284Z,1001.51
2016-05-30T10:40:32.052Z,1001.63
2016-05-30T10:41:32.056Z,1001.6
2016-05-30T10:42:32.074Z,1001.69
2016-05-30T10:43:32.077Z,1001.68
2016-05-30T10:44:32.095Z,1001.61
2016-05-30T10:45:32.097Z,1001.55
2016-05-30T10:46:32.099Z,1001.55
2016-05-30T10:47:32.119Z,1001.59
2016-05-30T10:48:32.137Z,1001.68
2016-05-30T10:49:32.139Z,1001.78
2016-05-30T10:50:32.142Z,1001.83
2016-05-30T10:51:32.161Z,1001.89
2016-05-30T10:52:32.163Z,1001.83
2016-05-30T10:53:32.182Z,1001.87
2016-05-30T10:54:32.185Z,1001.83
2016-05-30T10:55:32.202Z,1001.77
2016-05-30T10:56:32.205Z,1001.73
2016-05-30T10:57:32.224Z,1001.69
2016-05-30T10:58:32.226Z,1001.78
2016-05-30T10:59:32.245Z,1001.77
2016-05-30T11:00:32.247Z,1001.79
2016-05-30T11:01:32.250Z,1001.8
2016-05-30T11:02:32.268Z,1002.03
2016-05-30T11:03:32.270Z,1002.11
2016-05-30T11:04:32.289Z,1002.25
2016-05-30T11:05:32.292Z,1002.22
2016-05-30T11:06:32.310Z,1002.07
2016-05-30T11:07:32.313Z,1002
2016-05-30T11:08:32.331Z,1001.94
2016-05-30T11:09:32.693Z,1002.01
2016-05-30T11:10:32.399Z,1002.13
2016-05-30T11:11:32.370Z,1002.19
2016-05-30T11:12:32.358Z,1002.18
2016-05-30T11:13:32.391Z,1002.09
2016-05-30T11:14:32.378Z,1002.09
2016-05-30T11:15:32.397Z,1002.06
2016-05-30T11:16:32.415Z,1002.04
2016-05-30T11:17:32.418Z,1002.05
2016-05-30T11:18:32.436Z,1001.98
2016-05-30T11:19:32.439Z,1001.81
2016-05-30T11:20:32.441Z,1001.68
2016-05-30T11:21:32.460Z,1001.54
2016-05-30T11:22:33.557Z,1001.49
2016-05-30T11:23:34.310Z,1001.47
2016-05-30T11:24:32.484Z,1001.53
2016-05-30T11:25:32.502Z,1001.65
2016-05-30T11:26:32.504Z,1001.66
2016-05-30T11:27:32.523Z,1001.69
2016-05-30T11:28:32.540Z,1001.66
2016-05-30T11:29:32.544Z,1001.76
2016-05-30T11:30:32.546Z,1001.78
2016-05-30T11:31:32.549Z,1001.76
2016-05-30T11:33:33.664Z,1001.73
2016-05-30T11:34:32.589Z,1001.71
2016-05-30T11:35:32.592Z,1001.76
2016-05-30T11:36:33.391Z,1001.74
2016-05-30T11:37:32.612Z,1001.73
2016-05-30T11:38:32.614Z,1001.73
2016-05-30T11:39:32.618Z,1001.77
2016-05-30T11:40:32.636Z,1001.76
2016-05-30T11:41:32.638Z,1001.78
2016-05-30T11:42:32.641Z,1001.72
2016-05-30T11:43:32.660Z,1001.74
2016-05-30T11:44:32.663Z,1001.76
2016-05-30T11:45:32.680Z,1001.75
2016-05-30T11:46:32.719Z,1001.75
2016-05-30T11:47:32.742Z,1001.79
2016-05-30T11:48:32.765Z,1001.83
2016-05-30T11:49:32.803Z,1001.95
2016-05-30T11:50:32.817Z,1002
2016-05-30T11:51:32.827Z,1001.97
2016-05-30T11:52:32.852Z,1002.04
2016-05-30T11:53:32.862Z,1002.01
2016-05-30T11:54:32.872Z,1002.11
2016-05-30T11:55:32.894Z,1002.07
2016-05-30T11:56:32.899Z,1002.05
2016-05-30T11:57:32.905Z,1002.04
2016-05-30T11:58:32.926Z,1002.04
2016-05-30T11:59:32.947Z,1001.94
2016-05-30T12:00:32.951Z,1001.89
2016-05-30T12:01:32.955Z,1001.85
2016-05-30T12:02:32.975Z,1001.83
2016-05-30T12:03:32.979Z,1001.79
2016-05-30T12:04:32.982Z,1001.78
2016-05-30T12:05:33.002Z,1001.77
2016-05-30T12:06:33.005Z,1001.72
2016-05-30T12:07:34.008Z,1001.68
2016-05-30T12:08:33.026Z,1001.67
2016-05-30T12:09:33.060Z,1001.65
2016-05-30T12:10:33.048Z,1001.62
2016-05-30T12:11:33.066Z,1001.66
2016-05-30T12:12:33.068Z,1001.63
2016-05-30T12:13:33.087Z,1001.64